Terminal Aerodrome Forecast
Issued by NWS Jackson, KY

Current Version | Previous Version | Text Only | Print | Product List | Glossary On
Versions: 1 2 3 4 5 6 7 8 9 10 11 12 13 14 15 16 17 18
000
FTUS43 KJKL 292331
TAFJKL
TAF
KJKL 292331Z 3000/3024 VRB04KT P6SM SKC
     FM300600 VRB04KT P6SM SCT200 WS020/19035KT
     FM301200 18009KT P6SM BKN100
     FM301800 19009G18KT P6SM VCTS BKN080CB=

USA.gov is the U.S. government's official web portal to all federal, state and local government web resources and services.